Time;durP1;ratioP1;P1;durP2;ratioP2;P2;SDS_P1;SDS_P2;PMS_P1;PMS_P2;Temp;Humidity;BMP_temperature;BMP_pressure;BME280_temperature;BME280_humidity;BME280_pressure;Samples;Min_cycle;Max_cycle;Signal;HPM_P1;HPM_P2
2021/04/10 00:02:09;;;;;;;0.50;0.20;;;21.40;37.00;;;;;;5014755;28;20075;-83
2021/04/10 00:04:36;;;;;;;1.00;0.20;;;21.40;37.00;;;;;;5015644;28;20478;-81
2021/04/10 00:07:02;;;;;;;1.25;0.30;;;21.40;37.00;;;;;;5015717;28;20111;-80
2021/04/10 00:09:28;;;;;;;0.95;0.13;;;21.40;37.00;;;;;;5047825;28;20056;-81
2021/04/10 00:11:54;;;;;;;0.43;0.10;;;21.40;37.00;;;;;;5052509;28;20397;-80
2021/04/10 00:14:20;;;;;;;0.55;0.10;;;21.40;37.00;;;;;;5031861;28;20108;-80
2021/04/10 00:16:46;;;;;;;2.60;0.10;;;21.40;37.00;;;;;;5016179;28;20524;-80
2021/04/10 00:19:13;;;;;;;1.00;0.20;;;21.40;37.00;;;;;;5050464;28;20078;-81
2021/04/10 00:21:39;;;;;;;0.30;0.10;;;21.40;37.00;;;;;;5040749;28;20216;-79
2021/04/10 00:24:07;;;;;;;0.75;0.20;;;21.30;37.00;;;;;;5015147;28;20494;-80
2021/04/10 00:26:33;;;;;;;1.30;0.20;;;21.30;36.90;;;;;;5017595;28;20120;-81
2021/04/10 00:28:59;;;;;;;0.50;0.10;;;21.30;36.90;;;;;;5051764;28;20021;-81
2021/04/10 00:31:25;;;;;;;0.50;0.20;;;21.30;37.00;;;;;;5033761;28;20138;-80
2021/04/10 00:33:51;;;;;;;0.60;0.13;;;21.30;37.40;;;;;;5048196;28;20025;-80
2021/04/10 00:36:17;;;;;;;0.40;0.10;;;21.30;36.90;;;;;;5047200;28;20040;-79
2021/04/10 00:38:43;;;;;;;0.32;0.13;;;21.30;36.80;;;;;;5051875;28;20496;-80
2021/04/10 00:41:12;;;;;;;1.65;0.20;;;21.30;36.80;;;;;;5019734;28;20025;-80
2021/04/10 00:43:38;;;;;;;0.60;0.20;;;21.30;36.90;;;;;;5051710;28;20427;-79
2021/04/10 00:46:06;;;;;;;0.63;0.10;;;21.30;36.90;;;;;;5032794;28;20029;-80
2021/04/10 00:48:32;;;;;;;0.63;0.10;;;21.20;36.80;;;;;;5049463;28;20064;-79
2021/04/10 00:50:57;;;;;;;0.65;0.20;;;21.20;36.90;;;;;;5035768;28;20036;-80
2021/04/10 00:53:25;;;;;;;1.83;0.10;;;21.30;37.40;;;;;;5034219;28;20413;-80
2021/04/10 00:55:55;;;;;;;1.38;0.20;;;21.20;37.40;;;;;;5033419;28;20029;-80
2021/04/10 00:58:21;;;;;;;0.40;0.20;;;21.20;36.90;;;;;;5029800;28;20036;-79
2021/04/10 01:00:48;;;;;;;1.02;0.22;;;21.20;36.90;;;;;;5032273;28;20021;-80
2021/04/10 01:03:14;;;;;;;0.50;0.10;;;21.20;36.90;;;;;;5049763;28;20473;-80
2021/04/10 01:05:41;;;;;;;0.40;0.10;;;21.20;36.90;;;;;;5030453;28;20132;-80
2021/04/10 01:08:07;;;;;;;0.50;0.20;;;21.20;36.90;;;;;;5032244;28;20022;-79
2021/04/10 01:10:33;;;;;;;0.65;0.20;;;21.20;36.90;;;;;;5032082;28;20039;-80
2021/04/10 01:13:03;;;;;;;1.05;0.20;;;21.20;36.90;;;;;;5027304;28;20013;-80
2021/04/10 01:15:49;;;;;;;1.17;0.25;;;21.20;36.90;;;;;;5047682;28;20096;-81
2021/04/10 01:18:20;;;;;;;0.32;0.10;;;21.20;36.90;;;;;;5028397;28;20021;-81
2021/04/10 01:21:18;;;;;;;0.60;0.20;;;21.20;36.90;;;;;;5034369;28;20092;-79
2021/04/10 01:24:16;;;;;;;0.50;0.13;;;21.20;37.00;;;;;;5036607;28;20029;-81
2021/04/10 01:27:12;;;;;;;0.73;0.10;;;21.10;36.90;;;;;;5038394;28;20036;-79
2021/04/10 01:30:12;;;;;;;1.80;0.10;;;21.10;36.90;;;;;;5039463;28;20045;-79
2021/04/10 01:32:46;;;;;;;0.82;0.20;;;21.10;36.90;;;;;;5020093;28;20120;-80
2021/04/10 01:35:15;;;;;;;0.40;0.10;;;21.10;36.80;;;;;;5047038;28;20105;-79
2021/04/10 01:37:51;;;;;;;0.35;0.10;;;21.10;36.80;;;;;;5031031;28;20033;-82
2021/04/10 01:40:18;;;;;;;0.95;0.10;;;21.10;36.80;;;;;;5025753;28;20036;-80
2021/04/10 01:42:46;;;;;;;1.00;0.40;;;21.10;36.80;;;;;;5046637;28;20029;-80
2021/04/10 01:45:12;;;;;;;0.40;0.10;;;21.10;36.80;;;;;;5014632;28;20045;-79
2021/04/10 01:47:40;;;;;;;0.80;0.20;;;21.10;36.90;;;;;;5014334;28;20036;-80
2021/04/10 01:50:07;;;;;;;0.50;0.10;;;21.10;36.90;;;;;;5029610;28;20029;-80
2021/04/10 01:52:33;;;;;;;0.43;0.10;;;21.10;37.40;;;;;;5008299;28;20037;-79
2021/04/10 01:55:01;;;;;;;0.57;0.17;;;21.00;36.90;;;;;;5027555;28;20025;-80
2021/04/10 01:57:29;;;;;;;0.68;0.20;;;21.10;36.90;;;;;;5016275;28;20087;-82
2021/04/10 01:59:58;;;;;;;0.85;0.20;;;21.00;36.80;;;;;;5033170;28;20032;-79
2021/04/10 02:02:24;;;;;;;0.50;0.10;;;21.00;36.80;;;;;;5030726;28;20031;-80
2021/04/10 02:04:51;;;;;;;0.52;0.13;;;21.00;36.80;;;;;;5032413;28;20024;-80
2021/04/10 02:07:25;;;;;;;0.90;0.30;;;21.00;36.80;;;;;;5008838;28;20135;-80
2021/04/10 02:09:53;;;;;;;0.43;0.10;;;21.00;36.80;;;;;;5017835;28;20048;-80
2021/04/10 02:12:21;;;;;;;0.77;0.20;;;21.00;36.80;;;;;;5047956;28;20531;-81
2021/04/10 02:14:48;;;;;;;1.67;0.20;;;21.00;36.80;;;;;;5031931;28;20018;-80
2021/04/10 02:17:18;;;;;;;0.55;0.15;;;21.00;36.80;;;;;;5031560;28;20021;-82
2021/04/10 02:19:45;;;;;;;0.80;0.10;;;21.00;36.80;;;;;;5031023;28;20676;-81
2021/04/10 02:22:12;;;;;;;1.08;0.25;;;21.00;36.90;;;;;;5032916;28;20056;-81
2021/04/10 02:24:38;;;;;;;0.85;0.20;;;21.00;36.90;;;;;;5034315;28;20040;-80
2021/04/10 02:27:05;;;;;;;0.40;0.10;;;21.00;36.90;;;;;;5030579;28;20849;-80
2021/04/10 02:29:31;;;;;;;0.52;0.20;;;20.90;36.80;;;;;;5049445;28;20128;-80
2021/04/10 02:32:23;;;;;;;1.65;0.30;;;20.90;36.80;;;;;;5026917;28;20037;-81
2021/04/10 02:35:08;;;;;;;0.60;0.17;;;21.00;36.90;;;;;;5048534;28;20018;-80
2021/04/10 02:37:34;;;;;;;1.27;0.15;;;20.90;36.80;;;;;;5042647;28;20029;-80
2021/04/10 02:40:03;;;;;;;2.97;0.20;;;20.90;36.80;;;;;;5014640;28;20044;-79
2021/04/10 02:42:31;;;;;;;0.40;0.10;;;20.90;36.80;;;;;;5044361;28;20032;-80
2021/04/10 02:45:02;;;;;;;0.68;0.10;;;20.90;36.80;;;;;;5047925;28;20451;-82
2021/04/10 02:47:28;;;;;;;0.40;0.20;;;20.90;36.80;;;;;;5025676;28;20035;-80
2021/04/10 02:49:57;;;;;;;0.57;0.15;;;20.90;36.80;;;;;;5026916;28;20551;-80
2021/04/10 02:52:33;;;;;;;0.80;0.40;;;20.90;36.80;;;;;;5009451;28;20358;-80
2021/04/10 02:55:02;;;;;;;0.45;0.15;;;20.90;36.80;;;;;;5049049;28;20020;-80
2021/04/10 02:57:30;;;;;;;1.20;0.30;;;20.90;36.80;;;;;;5030749;28;20025;-79
2021/04/10 03:00:03;;;;;;;0.75;0.30;;;20.90;36.90;;;;;;5029598;28;20481;-80
2021/04/10 03:02:30;;;;;;;0.98;0.30;;;20.90;36.80;;;;;;5014918;28;20493;-79
2021/04/10 03:04:57;;;;;;;0.60;0.20;;;20.90;36.90;;;;;;5029896;28;20063;-79
2021/04/10 03:07:24;;;;;;;1.02;0.20;;;20.90;36.80;;;;;;5030028;28;20028;-79
2021/04/10 03:09:50;;;;;;;0.40;0.20;;;20.90;36.90;;;;;;5024672;28;20108;-80
2021/04/10 03:12:18;;;;;;;0.93;0.20;;;20.90;36.80;;;;;;5014901;28;20021;-79
2021/04/10 03:14:46;;;;;;;0.85;0.20;;;20.90;36.80;;;;;;5028809;28;20025;-79
2021/04/10 03:17:22;;;;;;;0.40;0.20;;;20.90;36.80;;;;;;5006262;28;20075;-79
2021/04/10 03:19:50;;;;;;;0.63;0.32;;;20.90;36.90;;;;;;5026347;28;20033;-79
2021/04/10 03:22:16;;;;;;;0.70;0.20;;;20.90;36.80;;;;;;5015063;28;20021;-79
2021/04/10 03:24:43;;;;;;;0.43;0.10;;;20.80;36.80;;;;;;5006732;28;21327;-79
2021/04/10 03:27:11;;;;;;;0.57;0.20;;;20.80;36.80;;;;;;5024257;28;20036;-80
2021/04/10 03:29:38;;;;;;;0.50;0.20;;;20.80;36.80;;;;;;5029789;28;20105;-79
2021/04/10 03:32:07;;;;;;;0.55;0.28;;;20.80;36.90;;;;;;5032061;28;20021;-79
2021/04/10 03:34:34;;;;;;;0.73;0.10;;;20.80;36.80;;;;;;5050366;28;20025;-79
2021/04/10 03:37:00;;;;;;;0.38;0.17;;;20.80;36.80;;;;;;5031136;28;20025;-80
2021/04/10 03:39:29;;;;;;;2.05;0.35;;;20.80;36.80;;;;;;5013921;28;20056;-80
2021/04/10 03:41:56;;;;;;;0.50;0.25;;;20.80;36.80;;;;;;5044323;28;20028;-79
2021/04/10 03:44:23;;;;;;;0.52;0.20;;;20.80;36.80;;;;;;5030490;28;20354;-80
2021/04/10 03:46:50;;;;;;;0.90;0.28;;;20.80;36.80;;;;;;5052542;28;20136;-80
2021/04/10 03:49:16;;;;;;;0.77;0.20;;;20.80;36.80;;;;;;5034472;28;20029;-80
2021/04/10 03:51:42;;;;;;;1.48;0.38;;;20.80;36.80;;;;;;5017943;28;20460;-81
2021/04/10 03:54:08;;;;;;;2.90;0.30;;;20.80;36.80;;;;;;5048367;28;20233;-80
2021/04/10 03:56:35;;;;;;;0.57;0.20;;;20.80;36.90;;;;;;5034196;28;20503;-80
2021/04/10 03:59:02;;;;;;;0.85;0.30;;;20.70;36.80;;;;;;5044879;28;20029;-80
2021/04/10 04:01:28;;;;;;;1.40;0.20;;;20.70;36.80;;;;;;5052942;28;20545;-79
2021/04/10 04:03:54;;;;;;;1.00;0.20;;;20.70;36.80;;;;;;5036192;28;20023;-80
2021/04/10 04:06:20;;;;;;;0.35;0.20;;;20.70;36.80;;;;;;5035272;28;20516;-80
2021/04/10 04:08:46;;;;;;;0.98;0.20;;;20.70;36.80;;;;;;5018026;28;20029;-80
2021/04/10 04:11:12;;;;;;;1.50;0.30;;;20.70;36.80;;;;;;5032721;28;20036;-79
2021/04/10 04:13:38;;;;;;;0.50;0.20;;;20.70;36.80;;;;;;5050652;28;20040;-80
2021/04/10 04:16:04;;;;;;;1.45;0.20;;;20.70;36.90;;;;;;5034576;28;20025;-80
2021/04/10 04:18:30;;;;;;;0.80;0.20;;;20.70;36.90;;;;;;5018275;28;20029;-79
2021/04/10 04:20:56;;;;;;;0.50;0.10;;;20.70;36.80;;;;;;5032390;28;20028;-80
2021/04/10 04:23:22;;;;;;;0.60;0.30;;;20.70;36.80;;;;;;5032246;28;20032;-80
2021/04/10 04:26:06;;;;;;;0.90;0.20;;;20.70;36.80;;;;;;5029013;28;20040;-80
2021/04/10 04:28:32;;;;;;;0.85;0.30;;;20.70;36.80;;;;;;5012217;28;20032;-81
2021/04/10 04:31:19;;;;;;;1.13;0.10;;;20.70;36.90;;;;;;5033728;28;20669;-80
2021/04/10 04:33:46;;;;;;;0.73;0.10;;;20.70;36.90;;;;;;5047932;28;20029;-80
2021/04/10 04:36:13;;;;;;;0.88;0.30;;;20.70;36.90;;;;;;5050012;28;20100;-80
2021/04/10 04:38:42;;;;;;;0.52;0.13;;;20.70;36.90;;;;;;5011177;28;20546;-81
2021/04/10 04:41:08;;;;;;;0.60;0.20;;;20.60;36.80;;;;;;5048684;28;20017;-80
2021/04/10 04:43:34;;;;;;;2.35;0.20;;;20.70;36.90;;;;;;5048795;28;20477;-79
2021/04/10 04:46:00;;;;;;;0.40;0.10;;;20.60;36.80;;;;;;5019519;28;20035;-79
2021/04/10 04:48:26;;;;;;;0.52;0.20;;;20.60;36.80;;;;;;5031956;28;20021;-79
2021/04/10 04:51:11;;;;;;;0.75;0.30;;;20.60;36.90;;;;;;5033997;28;20655;-79
2021/04/10 04:53:37;;;;;;;0.30;0.20;;;20.60;36.80;;;;;;5032456;28;20018;-81
2021/04/10 04:56:04;;;;;;;0.90;0.20;;;20.60;36.90;;;;;;5051618;28;20024;-80
2021/04/10 04:58:30;;;;;;;0.40;0.20;;;20.60;36.80;;;;;;5032768;28;20028;-80
2021/04/10 05:01:14;;;;;;;0.70;0.20;;;20.60;36.80;;;;;;5043913;28;20060;-80
2021/04/10 05:03:40;;;;;;;0.68;0.20;;;20.60;36.80;;;;;;5031313;28;20095;-79
2021/04/10 05:06:06;;;;;;;0.55;0.20;;;20.60;36.80;;;;;;5049408;28;20055;-79
2021/04/10 05:08:32;;;;;;;0.50;0.10;;;20.60;36.80;;;;;;5031716;28;20034;-80
2021/04/10 05:10:58;;;;;;;0.43;0.10;;;20.60;36.80;;;;;;5027732;28;20564;-80
2021/04/10 05:13:24;;;;;;;1.05;0.20;;;20.60;37.30;;;;;;5052733;28;20703;-80
2021/04/10 05:15:50;;;;;;;0.85;0.20;;;20.60;36.80;;;;;;5031652;28;20072;-80
2021/04/10 05:18:16;;;;;;;0.65;0.20;;;20.60;36.80;;;;;;5012886;28;20025;-80
2021/04/10 05:20:45;;;;;;;0.47;0.20;;;20.60;36.90;;;;;;5050264;28;20027;-80
2021/04/10 05:23:11;;;;;;;0.85;0.13;;;20.60;36.80;;;;;;5026930;28;20112;-80
2021/04/10 05:25:40;;;;;;;0.70;0.20;;;20.60;36.90;;;;;;5052094;28;20033;-80
2021/04/10 05:28:06;;;;;;;0.30;0.13;;;20.60;36.80;;;;;;5029124;28;20044;-80
2021/04/10 05:30:31;;;;;;;1.02;0.17;;;20.60;36.90;;;;;;5028805;28;20442;-79
2021/04/10 05:32:57;;;;;;;1.92;0.20;;;20.60;37.00;;;;;;5031803;28;20135;-81
2021/04/10 05:35:23;;;;;;;0.80;0.20;;;20.60;37.10;;;;;;5046275;28;20139;-80
2021/04/10 05:38:07;;;;;;;1.05;0.10;;;20.60;37.10;;;;;;5027428;28;20686;-79
2021/04/10 05:40:34;;;;;;;0.50;0.20;;;20.60;37.10;;;;;;5049542;28;20032;-80
2021/04/10 05:43:00;;;;;;;2.17;0.32;;;20.50;37.10;;;;;;5026510;28;20032;-79
2021/04/10 05:45:26;;;;;;;1.77;0.30;;;20.50;37.30;;;;;;5028428;28;20021;-81
2021/04/10 05:47:52;;;;;;;2.40;0.30;;;20.50;37.30;;;;;;5025986;28;20036;-82
2021/04/10 05:50:18;;;;;;;0.73;0.20;;;20.50;37.30;;;;;;5026884;28;20389;-82
2021/04/10 05:53:02;;;;;;;0.85;0.20;;;20.50;37.30;;;;;;5027557;28;20052;-82
2021/04/10 05:55:28;;;;;;;1.55;0.40;;;20.50;37.30;;;;;;5009463;28;20035;-82
2021/04/10 05:58:12;;;;;;;1.50;0.40;;;20.50;37.30;;;;;;5029499;28;20071;-80
2021/04/10 06:00:38;;;;;;;1.60;0.30;;;20.50;37.30;;;;;;5042652;28;20456;-79
2021/04/10 06:03:22;;;;;;;3.42;0.52;;;20.50;37.30;;;;;;5029793;28;20075;-80
2021/04/10 06:05:49;;;;;;;1.20;0.30;;;20.50;37.20;;;;;;5033104;28;20040;-79
2021/04/10 06:08:15;;;;;;;1.38;0.30;;;20.50;37.20;;;;;;5026735;28;20065;-80
2021/04/10 06:10:43;;;;;;;1.55;0.30;;;20.50;37.20;;;;;;5041265;28;20041;-79
2021/04/10 06:13:10;;;;;;;0.82;0.20;;;20.50;37.20;;;;;;5041292;28;20025;-80
2021/04/10 06:15:35;;;;;;;1.13;0.28;;;20.50;37.20;;;;;;5029334;28;20036;-79
2021/04/10 06:18:03;;;;;;;1.15;0.35;;;20.50;37.20;;;;;;5028139;28;20068;-80
2021/04/10 06:20:29;;;;;;;1.13;0.28;;;20.50;37.10;;;;;;5012142;28;20033;-81
2021/04/10 06:22:55;;;;;;;1.33;0.22;;;20.50;37.00;;;;;;5054143;28;20520;-78
2021/04/10 06:25:21;;;;;;;0.85;0.40;;;20.50;37.00;;;;;;5040882;28;20036;-79
2021/04/10 06:28:06;;;;;;;2.00;0.40;;;20.50;37.00;;;;;;5025154;28;20453;-79
2021/04/10 06:30:32;;;;;;;1.70;0.20;;;20.50;37.00;;;;;;5041272;28;20025;-80
2021/04/10 06:32:58;;;;;;;1.00;0.20;;;20.50;37.00;;;;;;5023846;28;20032;-78
2021/04/10 06:35:24;;;;;;;1.02;0.30;;;20.40;36.90;;;;;;5010844;28;20024;-79
2021/04/10 06:37:50;;;;;;;1.27;0.30;;;20.40;36.90;;;;;;5033601;28;20546;-78
2021/04/10 06:40:16;;;;;;;0.75;0.30;;;20.40;36.90;;;;;;5026428;28;20044;-79
2021/04/10 06:42:45;;;;;;;0.88;0.38;;;20.50;37.00;;;;;;5027997;28;20063;-80
2021/04/10 06:45:11;;;;;;;1.35;0.20;;;20.40;36.90;;;;;;5027307;28;20043;-80
2021/04/10 06:47:37;;;;;;;1.98;0.20;;;20.40;36.90;;;;;;5028273;28;20051;-79
2021/04/10 06:50:05;;;;;;;0.77;0.25;;;20.40;36.90;;;;;;5048505;28;20033;-79
2021/04/10 06:52:35;;;;;;;2.88;0.85;;;20.40;36.90;;;;;;5041765;28;20036;-79
2021/04/10 06:55:12;;;;;;;3.13;0.20;;;20.40;36.90;;;;;;5030769;28;20013;-80
2021/04/10 06:57:51;;;;;;;3.90;0.50;;;20.40;36.90;;;;;;5020420;28;20111;-79
2021/04/10 07:00:18;;;;;;;0.85;0.43;;;20.40;36.90;;;;;;5004402;28;20543;-79
2021/04/10 07:02:45;;;;;;;1.17;0.50;;;20.40;36.90;;;;;;5021162;28;20026;-79
2021/04/10 07:05:12;;;;;;;2.40;0.45;;;20.40;36.90;;;;;;5040535;28;20030;-80
2021/04/10 07:07:40;;;;;;;3.30;0.57;;;20.40;36.90;;;;;;5049051;28;20989;-78
2021/04/10 07:10:07;;;;;;;4.43;0.45;;;20.40;36.90;;;;;;5029151;28;20025;-81
2021/04/10 07:12:33;;;;;;;1.25;0.40;;;20.40;36.90;;;;;;5033551;28;20408;-79
2021/04/10 07:14:59;;;;;;;1.33;0.45;;;20.40;36.90;;;;;;5027896;28;20025;-79
2021/04/10 07:17:25;;;;;;;1.98;0.40;;;20.40;37.00;;;;;;5041125;28;20029;-79
2021/04/10 07:20:30;;;;;;;4.00;0.88;;;20.40;37.00;;;;;;5053323;28;20043;-79
2021/04/10 07:22:58;;;;;;;1.10;0.40;;;20.40;36.90;;;;;;5058008;28;20036;-79
2021/04/10 07:25:24;;;;;;;2.22;0.55;;;20.40;36.90;;;;;;5054289;28;20027;-80
2021/04/10 07:28:24;;;;;;;1.60;0.55;;;20.40;36.90;;;;;;5049844;28;20117;-79
2021/04/10 07:31:01;;;;;;;2.33;1.00;;;20.40;37.00;;;;;;5037232;28;20041;-79
2021/04/10 07:33:28;;;;;;;2.88;0.80;;;20.40;36.90;;;;;;5017301;28;20111;-78
2021/04/10 07:35:54;;;;;;;3.63;0.90;;;20.40;37.00;;;;;;5026919;28;20156;-79
2021/04/10 07:38:28;;;;;;;2.10;1.05;;;20.40;37.00;;;;;;5046111;28;20048;-79
2021/04/10 07:40:56;;;;;;;3.05;1.30;;;20.40;37.00;;;;;;5019270;28;20041;-80
2021/04/10 07:43:29;;;;;;;1.77;1.23;;;20.40;37.00;;;;;;5054177;28;20052;-79
2021/04/10 07:46:18;;;;;;;1.70;1.10;;;20.40;37.00;;;;;;5021735;28;20029;-79
2021/04/10 07:49:12;;;;;;;2.80;1.10;;;20.40;37.00;;;;;;5039426;28;20039;-80
2021/04/10 07:52:01;;;;;;;2.88;1.20;;;20.40;37.00;;;;;;5013739;28;20947;-79
2021/04/10 07:54:47;;;;;;;2.80;1.15;;;20.40;37.00;;;;;;5035435;28;20029;-79
2021/04/10 07:57:14;;;;;;;1.63;1.15;;;20.40;37.00;;;;;;5051493;28;20449;-79
2021/04/10 08:00:00;;;;;;;2.35;1.15;;;20.40;37.00;;;;;;5041883;28;20044;-79
2021/04/10 08:02:33;;;;;;;2.58;1.70;;;20.40;37.00;;;;;;5013429;28;20052;-80
2021/04/10 08:05:00;;;;;;;2.30;1.58;;;20.40;37.00;;;;;;5031461;28;20025;-79
2021/04/10 08:07:29;;;;;;;1.75;1.58;;;20.40;37.00;;;;;;5031490;28;20822;-79
2021/04/10 08:10:00;;;;;;;2.72;1.50;;;20.40;37.00;;;;;;5029274;28;20084;-79
2021/04/10 08:12:28;;;;;;;2.90;1.60;;;20.40;37.50;;;;;;5027577;28;20026;-80
2021/04/10 08:15:24;;;;;;;3.35;1.52;;;20.40;37.00;;;;;;5049106;28;20637;-80
2021/04/10 08:17:50;;;;;;;1.48;1.08;;;20.40;37.00;;;;;;5030889;28;20053;-79
2021/04/10 08:20:23;;;;;;;4.55;1.48;;;20.40;37.00;;;;;;5014704;28;20049;-79
2021/04/10 08:23:13;;;;;;;1.65;1.23;;;20.40;37.00;;;;;;5017199;28;20064;-78
2021/04/10 08:25:58;;;;;;;4.30;1.67;;;20.30;37.00;;;;;;5052591;28;20040;-79
2021/04/10 08:28:24;;;;;;;4.32;1.95;;;20.40;37.10;;;;;;5018212;28;20025;-79
2021/04/10 08:31:09;;;;;;;2.60;1.63;;;20.40;37.10;;;;;;5041267;28;20442;-80
2021/04/10 08:33:36;;;;;;;2.83;1.95;;;20.40;37.10;;;;;;5016867;28;20029;-79
2021/04/10 08:36:22;;;;;;;3.60;2.05;;;20.40;37.10;;;;;;5046677;28;20108;-79
2021/04/10 08:38:48;;;;;;;4.72;1.88;;;20.40;37.10;;;;;;5049018;28;20507;-80
2021/04/10 08:41:14;;;;;;;2.95;1.65;;;20.40;37.10;;;;;;5026842;28;20017;-78
2021/04/10 08:44:00;;;;;;;2.75;1.80;;;20.40;37.10;;;;;;5035772;28;20044;-79
2021/04/10 08:46:28;;;;;;;3.13;1.95;;;20.40;37.10;;;;;;5030861;28;20033;-79
2021/04/10 08:49:17;;;;;;;2.67;1.88;;;20.40;37.20;;;;;;5053460;28;20044;-82
2021/04/10 08:51:45;;;;;;;2.70;1.95;;;20.40;37.10;;;;;;5031180;28;20108;-79
2021/04/10 08:54:11;;;;;;;4.25;2.22;;;20.40;37.10;;;;;;5054477;28;20024;-79
2021/04/10 08:56:39;;;;;;;3.63;2.25;;;20.40;37.10;;;;;;5035472;28;20476;-80
2021/04/10 08:59:11;;;;;;;2.95;1.88;;;20.40;37.30;;;;;;5032401;28;20034;-82
2021/04/10 09:01:39;;;;;;;;;;;20.40;37.20;;;;;;5014816;28;20025;-80
2021/04/10 09:04:05;;;;;;;2.05;1.40;;;20.40;37.20;;;;;;5028917;28;20394;-79
2021/04/10 09:06:31;;;;;;;2.30;1.67;;;20.40;37.20;;;;;;5030680;28;20045;-80
2021/04/10 09:09:12;;;;;;;3.97;1.42;;;20.40;38.00;;;;;;5025813;28;20483;-80
2021/04/10 09:11:46;;;;;;;2.53;1.48;;;20.30;38.60;;;;;;5032958;28;20575;-79
2021/04/10 09:14:13;;;;;;;2.60;1.30;;;20.30;38.80;;;;;;5011801;28;20024;-80
2021/04/10 09:16:50;;;;;;;2.42;1.42;;;20.30;38.90;;;;;;5030145;28;20032;-79
2021/04/10 09:19:19;;;;;;;2.88;1.80;;;20.30;39.00;;;;;;5029590;28;20025;-79
2021/04/10 09:22:04;;;;;;;2.75;1.33;;;20.30;39.00;;;;;;5044063;28;20364;-79
2021/04/10 09:24:44;;;;;;;3.03;1.80;;;20.30;39.00;;;;;;5011312;28;20055;-80
2021/04/10 09:27:29;;;;;;;4.72;1.85;;;20.30;38.90;;;;;;5050959;28;20473;-80
2021/04/10 09:29:59;;;;;;;5.20;1.70;;;20.30;38.80;;;;;;5044629;28;20033;-79
2021/04/10 09:32:33;;;;;;;4.28;1.85;;;20.30;38.60;;;;;;5041297;28;20029;-80
2021/04/10 09:35:19;;;;;;;2.80;1.70;;;20.30;38.50;;;;;;5027068;28;20063;-82
2021/04/10 09:37:46;;;;;;;2.95;1.83;;;20.30;38.70;;;;;;5027243;28;20361;-79
2021/04/10 09:40:20;;;;;;;4.85;1.23;;;20.30;38.80;;;;;;5025158;28;20025;-79
2021/04/10 09:43:05;;;;;;;3.35;1.75;;;20.30;38.80;;;;;;5029563;28;20447;-79
2021/04/10 09:45:34;;;;;;;3.67;1.67;;;20.30;38.90;;;;;;5018809;28;20028;-79
2021/04/10 09:48:03;;;;;;;4.22;1.30;;;20.30;38.80;;;;;;5044690;28;20025;-80
2021/04/10 09:50:29;;;;;;;6.10;2.42;;;20.30;38.90;;;;;;5025606;28;20025;-79
2021/04/10 09:53:22;;;;;;;2.15;1.23;;;20.30;38.80;;;;;;5047714;28;20044;-78
2021/04/10 09:56:09;;;;;;;8.50;1.80;;;20.30;38.90;;;;;;5010809;28;20039;-78
2021/04/10 09:58:52;;;;;;;3.38;1.92;;;20.30;38.70;;;;;;5041647;28;20037;-79
2021/04/10 10:01:23;;;;;;;5.47;2.13;;;20.40;38.70;;;;;;5027071;28;20420;-78
2021/04/10 10:04:12;;;;;;;4.97;1.52;;;20.30;39.00;;;;;;5042186;28;20036;-78
2021/04/10 10:06:46;;;;;;;2.55;1.42;;;20.30;39.20;;;;;;5029073;28;20035;-77
2021/04/10 10:09:21;;;;;;;4.10;1.40;;;20.30;39.30;;;;;;5033346;28;20025;-78
2021/04/10 10:11:55;;;;;;;3.42;1.38;;;20.30;39.50;;;;;;5030662;28;20024;-78
2021/04/10 10:14:22;;;;;;;5.80;1.95;;;20.30;39.50;;;;;;5012325;28;20021;-78
2021/04/10 10:16:51;;;;;;;2.67;1.58;;;20.30;39.60;;;;;;5026021;28;20023;-78
2021/04/10 10:19:18;;;;;;;7.28;2.20;;;20.30;39.70;;;;;;5028029;28;20495;-80
2021/04/10 10:21:45;;;;;;;2.40;2.00;;;20.30;39.70;;;;;;5032164;28;20032;-78
2021/04/10 10:24:11;;;;;;;4.32;1.55;;;20.30;39.80;;;;;;5031454;28;20017;-78
2021/04/10 10:26:41;;;;;;;3.88;1.83;;;20.30;39.90;;;;;;5044519;28;20087;-78
2021/04/10 10:29:10;;;;;;;3.47;1.92;;;20.30;39.50;;;;;;5032546;28;20120;-78
2021/04/10 10:31:53;;;;;;;4.68;2.28;;;20.30;39.20;;;;;;5013717;28;20043;-78
2021/04/10 10:34:23;;;;;;;9.45;1.88;;;20.30;39.20;;;;;;5027649;28;20080;-79
2021/04/10 10:36:51;;;;;;;5.68;2.33;;;20.30;39.20;;;;;;5031487;28;20025;-78
2021/04/10 10:39:30;;;;;;;9.52;1.73;;;20.30;39.20;;;;;;5014178;28;20046;-79
2021/04/10 10:41:59;;;;;;;5.03;1.95;;;20.30;39.10;;;;;;5026580;28;20508;-80
2021/04/10 10:44:25;;;;;;;6.68;2.40;;;20.30;39.10;;;;;;5024236;28;20116;-79
2021/04/10 10:47:08;;;;;;;4.07;1.48;;;20.30;39.20;;;;;;5047012;28;20058;-79
2021/04/10 10:49:34;;;;;;;6.03;1.55;;;20.30;39.30;;;;;;5049595;28;20052;-78
2021/04/10 10:52:01;;;;;;;5.03;2.05;;;20.30;39.20;;;;;;5034956;28;20136;-78
2021/04/10 10:54:38;;;;;;;7.25;2.35;;;20.30;39.20;;;;;;5011157;28;20028;-78
2021/04/10 10:57:13;;;;;;;5.18;1.98;;;20.30;38.90;;;;;;5032823;28;20450;-78
2021/04/10 10:59:39;;;;;;;2.95;1.85;;;20.30;38.80;;;;;;5046870;28;20025;-78
2021/04/10 11:02:05;;;;;;;3.17;1.70;;;20.30;38.80;;;;;;5028422;28;20064;-78
2021/04/10 11:04:34;;;;;;;3.13;1.50;;;20.30;38.70;;;;;;5048893;28;20041;-78
2021/04/10 11:07:04;;;;;;;3.05;1.60;;;20.30;38.60;;;;;;5029592;28;20025;-78
2021/04/10 11:09:37;;;;;;;3.70;2.00;;;20.30;38.60;;;;;;5028154;28;20058;-78
2021/04/10 11:12:16;;;;;;;6.30;1.63;;;20.30;38.60;;;;;;5032800;28;20033;-78
2021/04/10 11:14:43;;;;;;;5.50;1.77;;;20.30;38.50;;;;;;5025825;28;20444;-77
2021/04/10 11:17:11;;;;;;;2.40;1.50;;;20.30;38.50;;;;;;5007573;28;20025;-78
2021/04/10 11:19:40;;;;;;;4.60;1.77;;;20.30;38.50;;;;;;5013812;28;20049;-78
2021/04/10 11:22:12;;;;;;;3.80;1.85;;;20.30;38.50;;;;;;5025284;28;20052;-78
2021/04/10 11:24:41;;;;;;;4.47;1.95;;;20.30;38.40;;;;;;5013263;28;20079;-78
2021/04/10 11:27:18;;;;;;;6.40;2.63;;;20.30;38.40;;;;;;5010415;28;20029;-78
2021/04/10 11:29:53;;;;;;;2.78;1.70;;;20.30;38.40;;;;;;5044282;28;20083;-78
2021/04/10 11:32:21;;;;;;;2.97;1.48;;;20.30;38.40;;;;;;5046665;28;20640;-78
2021/04/10 11:34:47;;;;;;;3.90;2.25;;;20.30;38.30;;;;;;5047899;28;20093;-79
2021/04/10 11:37:15;;;;;;;4.30;2.35;;;20.30;38.30;;;;;;5052080;28;20051;-78
2021/04/10 11:39:57;;;;;;;2.90;1.50;;;20.30;38.30;;;;;;5030951;28;20025;-79
2021/04/10 11:42:30;;;;;;;4.45;2.10;;;20.40;38.30;;;;;;5024812;28;20032;-79
2021/04/10 11:44:59;;;;;;;2.63;2.10;;;20.40;38.30;;;;;;5031894;28;20025;-79
2021/04/10 11:47:27;;;;;;;4.70;2.25;;;20.40;38.40;;;;;;5047172;28;20025;-79
2021/04/10 11:50:04;;;;;;;3.55;1.98;;;20.40;38.30;;;;;;5031984;28;20033;-79
2021/04/10 11:52:30;;;;;;;3.03;1.73;;;20.30;38.30;;;;;;5030376;28;20029;-80
2021/04/10 11:55:05;;;;;;;4.40;2.10;;;20.30;38.30;;;;;;5019131;28;20112;-79
2021/04/10 11:57:34;;;;;;;2.95;2.03;;;20.30;38.30;;;;;;5031017;28;20037;-83
2021/04/10 12:00:04;;;;;;;5.97;1.90;;;20.30;38.80;;;;;;5047532;28;20075;-79
2021/04/10 12:02:39;;;;;;;2.63;1.67;;;20.30;38.30;;;;;;5026883;28;20501;-80
2021/04/10 12:05:28;;;;;;;3.45;1.65;;;20.30;38.30;;;;;;5031596;28;20024;-78
2021/04/10 12:08:14;;;;;;;4.13;1.67;;;20.40;38.20;;;;;;5032946;28;20786;-78
2021/04/10 12:10:48;;;;;;;4.18;2.03;;;20.40;38.30;;;;;;5052341;28;20021;-78
2021/04/10 12:13:16;;;;;;;2.55;1.83;;;20.30;38.20;;;;;;5032530;28;20029;-78
2021/04/10 12:15:43;;;;;;;3.33;1.90;;;20.40;38.30;;;;;;5052909;28;20542;-78
2021/04/10 12:18:10;;;;;;;5.60;1.98;;;20.40;38.30;;;;;;5013740;28;20125;-78
2021/04/10 12:20:39;;;;;;;3.25;2.15;;;20.30;38.30;;;;;;5019568;28;20056;-78
2021/04/10 12:23:06;;;;;;;3.55;1.98;;;20.40;38.30;;;;;;5037245;28;20129;-78
2021/04/10 12:25:34;;;;;;;3.75;2.35;;;20.30;38.30;;;;;;5022521;28;20071;-78
2021/04/10 12:28:00;;;;;;;3.75;2.55;;;20.40;38.30;;;;;;5021355;28;20022;-78
2021/04/10 12:30:26;;;;;;;3.58;2.50;;;20.30;38.20;;;;;;5052560;28;20041;-78
2021/04/10 12:32:52;;;;;;;4.00;2.55;;;20.40;38.40;;;;;;5031215;28;20112;-78
2021/04/10 12:35:18;;;;;;;5.03;2.58;;;20.30;38.40;;;;;;5017083;28;20101;-78
2021/04/10 12:37:44;;;;;;;4.07;2.95;;;20.30;38.30;;;;;;5048831;28;20021;-78
2021/04/10 12:40:11;;;;;;;3.75;2.17;;;20.30;38.40;;;;;;5031142;28;20025;-78
2021/04/10 12:42:37;;;;;;;3.90;2.80;;;20.30;38.40;;;;;;5016728;28;20032;-78
2021/04/10 12:45:06;;;;;;;4.90;2.83;;;20.30;38.30;;;;;;5033367;28;20021;-78
2021/04/10 12:47:32;;;;;;;3.95;2.53;;;20.30;38.30;;;;;;5013831;28;20128;-78
2021/04/10 12:49:58;;;;;;;3.55;2.42;;;20.30;38.40;;;;;;5014032;28;20037;-78
2021/04/10 12:52:24;;;;;;;3.60;2.45;;;20.30;38.50;;;;;;5018148;28;20033;-77
2021/04/10 12:54:50;;;;;;;3.85;2.95;;;20.30;38.40;;;;;;5013090;28;20033;-77
2021/04/10 12:57:16;;;;;;;3.33;2.60;;;20.30;38.40;;;;;;5009671;28;20093;-78
2021/04/10 12:59:43;;;;;;;5.68;2.75;;;20.30;38.40;;;;;;5032054;28;20112;-77
2021/04/10 13:02:09;;;;;;;4.80;2.60;;;20.30;38.50;;;;;;5016480;28;20020;-78
2021/04/10 13:04:36;;;;;;;4.75;2.55;;;20.30;38.40;;;;;;5027469;28;20021;-78
2021/04/10 13:07:03;;;;;;;3.28;2.53;;;20.30;38.40;;;;;;5033708;28;20040;-78